TimeEDT,TemperatureF,Dew PointF,Humidity,Sea Level PressureIn,VisibilityMPH,Wind Direction,Wind SpeedMPH,Gust SpeedMPH,PrecipitationIn,Events,Conditions,WindDirDegrees,DateUTC
12:52 AM,32.0,14.0,48,29.94,10.0,WNW,13.8,26.5,N/A,,Overcast,290,2013-04-03 04:52:00
1:52 AM,32.0,15.1,50,29.95,10.0,WNW,9.2,19.6,N/A,,Overcast,290,2013-04-03 05:52:00
2:52 AM,32.0,12.9,45,29.94,10.0,West,24.2,32.2,N/A,,Mostly Cloudy,280,2013-04-03 06:52:00
3:52 AM,30.9,14.0,50,29.94,10.0,West,10.4,24.2,N/A,,Scattered Clouds,270,2013-04-03 07:52:00
4:52 AM,30.0,10.9,45,29.96,10.0,WNW,10.4,24.2,N/A,,Clear,290,2013-04-03 08:52:00
5:52 AM,28.9,10.9,47,29.97,10.0,West,10.4,18.4,N/A,,Clear,260,2013-04-03 09:52:00
6:52 AM,28.9,10.9,47,29.99,10.0,West,8.1,-,N/A,,Clear,270,2013-04-03 10:52:00
7:52 AM,30.9,10.9,43,30.00,10.0,West,10.4,17.3,N/A,,Clear,270,2013-04-03 11:52:00
8:52 AM,33.1,10.9,40,30.00,10.0,West,17.3,28.8,N/A,,Clear,270,2013-04-03 12:52:00
9:52 AM,35.1,10.0,35,29.99,10.0,West,18.4,26.5,N/A,,Clear,280,2013-04-03 13:52:00
10:52 AM,37.9,7.0,28,29.99,10.0,West,23.0,33.4,N/A,,Clear,280,2013-04-03 14:52:00
11:52 AM,39.9,9.0,28,29.99,10.0,West,21.9,29.9,N/A,,Clear,280,2013-04-03 15:52:00
12:52 PM,42.1,10.0,27,29.98,10.0,WNW,11.5,23.0,N/A,,Clear,290,2013-04-03 16:52:00
1:52 PM,42.1,8.1,25,29.98,10.0,WSW,11.5,31.1,N/A,,Clear,250,2013-04-03 17:52:00
2:52 PM,44.1,6.1,21,29.97,10.0,WNW,16.1,33.4,N/A,,Clear,290,2013-04-03 18:52:00
3:52 PM,44.1,9.0,24,29.98,10.0,West,18.4,24.2,N/A,,Clear,280,2013-04-03 19:52:00
4:52 PM,44.1,9.0,24,29.97,10.0,WNW,13.8,25.3,N/A,,Clear,300,2013-04-03 20:52:00
5:52 PM,42.1,8.1,25,30.00,10.0,West,18.4,31.1,N/A,,Clear,270,2013-04-03 21:52:00
6:52 PM,39.9,9.0,28,30.04,10.0,West,16.1,27.6,N/A,,Clear,280,2013-04-03 22:52:00
7:52 PM,37.0,10.9,34,30.07,10.0,West,16.1,21.9,N/A,,Clear,280,2013-04-03 23:52:00
8:52 PM,35.1,12.9,40,30.11,10.0,WNW,17.3,27.6,N/A,,Clear,290,2013-04-04 00:52:00
9:52 PM,34.0,12.9,42,30.14,10.0,WNW,12.7,23.0,N/A,,Clear,290,2013-04-04 01:52:00
10:52 PM,33.1,12.9,43,30.16,10.0,West,13.8,20.7,N/A,,Clear,280,2013-04-04 02:52:00
11:52 PM,33.1,12.9,43,30.17,10.0,Variable,6.9,16.1,N/A,,Clear,0,2013-04-04 03:52:00